sensor_id;sensor_type;location;lat;lon;timestamp;pressure;altitude;pressure_sealevel;temperature;humidity
76137;BME280;68622;53.128;17.966;2023-04-24T00:00:57;100268.85;;;14.22;67.74
76137;BME280;68622;53.128;17.966;2023-04-24T00:03:25;100270.27;;;14.22;67.40
76137;BME280;68622;53.128;17.966;2023-04-24T00:05:51;100268.05;;;14.20;67.66
76137;BME280;68622;53.128;17.966;2023-04-24T00:08:18;100268.14;;;14.16;67.60
76137;BME280;68622;53.128;17.966;2023-04-24T00:10:44;100266.70;;;14.12;67.89
76137;BME280;68622;53.128;17.966;2023-04-24T00:13:10;100266.14;;;14.10;67.70
76137;BME280;68622;53.128;17.966;2023-04-24T00:15:36;100259.52;;;14.12;67.51
76137;BME280;68622;53.128;17.966;2023-04-24T00:18:02;100257.92;;;14.14;67.46
76137;BME280;68622;53.128;17.966;2023-04-24T00:20:28;100257.91;;;14.19;67.37
76137;BME280;68622;53.128;17.966;2023-04-24T00:22:55;100256.80;;;14.22;67.39
76137;BME280;68622;53.128;17.966;2023-04-24T00:25:21;100249.89;;;14.23;67.96
76137;BME280;68622;53.128;17.966;2023-04-24T00:27:47;100251.86;;;14.16;67.99
76137;BME280;68622;53.128;17.966;2023-04-24T00:30:13;100252.92;;;14.10;68.39
76137;BME280;68622;53.128;17.966;2023-04-24T00:32:39;100249.84;;;14.06;68.11
76137;BME280;68622;53.128;17.966;2023-04-24T00:35:06;100242.83;;;14.03;68.03
76137;BME280;68622;53.128;17.966;2023-04-24T00:37:32;100238.95;;;14.04;67.75
76137;BME280;68622;53.128;17.966;2023-04-24T00:39:58;100235.47;;;14.07;67.75
76137;BME280;68622;53.128;17.966;2023-04-24T00:42:24;100230.59;;;14.10;67.92
76137;BME280;68622;53.128;17.966;2023-04-24T00:44:50;100224.06;;;14.13;67.82
76137;BME280;68622;53.128;17.966;2023-04-24T00:47:18;100221.84;;;14.15;67.85
76137;BME280;68622;53.128;17.966;2023-04-24T00:49:44;100222.53;;;14.15;67.77
76137;BME280;68622;53.128;17.966;2023-04-24T00:52:10;100225.30;;;14.14;67.89
76137;BME280;68622;53.128;17.966;2023-04-24T00:54:38;100229.75;;;14.08;67.91
76137;BME280;68622;53.128;17.966;2023-04-24T00:57:04;100229.48;;;14.03;68.05
76137;BME280;68622;53.128;17.966;2023-04-24T00:59:30;100230.62;;;13.96;68.58
76137;BME280;68622;53.128;17.966;2023-04-24T01:01:57;100231.17;;;13.92;68.49
76137;BME280;68622;53.128;17.966;2023-04-24T01:04:24;100227.30;;;13.90;68.82
76137;BME280;68622;53.128;17.966;2023-04-24T01:06:50;100227.94;;;13.85;69.11
76137;BME280;68622;53.128;17.966;2023-04-24T01:09:17;100226.73;;;13.84;68.54
76137;BME280;68622;53.128;17.966;2023-04-24T01:11:44;100224.46;;;13.83;68.41
76137;BME280;68622;53.128;17.966;2023-04-24T01:14:11;100219.89;;;13.86;68.48
76137;BME280;68622;53.128;17.966;2023-04-24T01:16:37;100222.28;;;13.86;68.51
76137;BME280;68622;53.128;17.966;2023-04-24T01:19:06;100220.05;;;13.85;68.50
76137;BME280;68622;53.128;17.966;2023-04-24T01:21:35;100215.84;;;13.83;69.19
76137;BME280;68622;53.128;17.966;2023-04-24T01:24:04;100207.36;;;13.79;69.33
76137;BME280;68622;53.128;17.966;2023-04-24T01:26:30;100207.59;;;13.75;68.95
76137;BME280;68622;53.128;17.966;2023-04-24T01:28:57;100208.02;;;13.75;68.62
76137;BME280;68622;53.128;17.966;2023-04-24T01:31:23;100205.90;;;13.76;68.66
76137;BME280;68622;53.128;17.966;2023-04-24T01:33:50;100210.54;;;13.77;68.59
76137;BME280;68622;53.128;17.966;2023-04-24T01:36:17;100205.86;;;13.77;68.83
76137;BME280;68622;53.128;17.966;2023-04-24T01:38:43;100204.68;;;13.73;69.01
76137;BME280;68622;53.128;17.966;2023-04-24T01:41:10;100206.48;;;13.70;69.16
76137;BME280;68622;53.128;17.966;2023-04-24T01:43:36;100205.13;;;13.66;69.18
76137;BME280;68622;53.128;17.966;2023-04-24T01:46:02;100200.19;;;13.63;69.06
76137;BME280;68622;53.128;17.966;2023-04-24T01:48:28;100203.87;;;13.64;68.91
76137;BME280;68622;53.128;17.966;2023-04-24T01:50:55;100197.88;;;13.67;68.84
76137;BME280;68622;53.128;17.966;2023-04-24T01:53:22;100201.66;;;13.70;68.94
76137;BME280;68622;53.128;17.966;2023-04-24T01:55:48;100202.17;;;13.75;68.77
76137;BME280;68622;53.128;17.966;2023-04-24T01:58:14;100206.61;;;13.80;68.73
76137;BME280;68622;53.128;17.966;2023-04-24T02:00:40;100202.43;;;13.80;69.01
76137;BME280;68622;53.128;17.966;2023-04-24T02:03:06;100204.48;;;13.73;69.67
76137;BME280;68622;53.128;17.966;2023-04-24T02:05:33;100200.10;;;13.71;69.13
76137;BME280;68622;53.128;17.966;2023-04-24T02:07:58;100196.97;;;13.69;69.60
76137;BME280;68622;53.128;17.966;2023-04-24T02:10:24;100196.45;;;13.65;69.46
76137;BME280;68622;53.128;17.966;2023-04-24T02:12:51;100195.09;;;13.62;69.48
76137;BME280;68622;53.128;17.966;2023-04-24T02:15:16;100192.28;;;13.59;69.42
76137;BME280;68622;53.128;17.966;2023-04-24T02:17:43;100193.73;;;13.60;69.39
76137;BME280;68622;53.128;17.966;2023-04-24T02:20:09;100188.88;;;13.60;69.56
76137;BME280;68622;53.128;17.966;2023-04-24T02:22:37;100177.61;;;13.59;69.76
76137;BME280;68622;53.128;17.966;2023-04-24T02:25:04;100176.56;;;13.59;69.77
76137;BME280;68622;53.128;17.966;2023-04-24T02:27:30;100176.77;;;13.59;69.58
76137;BME280;68622;53.128;17.966;2023-04-24T02:29:56;100177.11;;;13.61;69.40
76137;BME280;68622;53.128;17.966;2023-04-24T02:32:22;100180.08;;;13.64;69.67
76137;BME280;68622;53.128;17.966;2023-04-24T02:34:48;100175.34;;;13.66;69.37
76137;BME280;68622;53.128;17.966;2023-04-24T02:37:14;100176.70;;;13.69;69.51
76137;BME280;68622;53.128;17.966;2023-04-24T02:39:40;100175.49;;;13.69;69.47
76137;BME280;68622;53.128;17.966;2023-04-24T02:42:06;100172.27;;;13.68;69.59
76137;BME280;68622;53.128;17.966;2023-04-24T02:44:34;100169.32;;;13.68;69.46
76137;BME280;68622;53.128;17.966;2023-04-24T02:47:00;100161.66;;;13.68;69.68
76137;BME280;68622;53.128;17.966;2023-04-24T02:49:26;100159.54;;;13.66;69.69
76137;BME280;68622;53.128;17.966;2023-04-24T02:51:53;100153.23;;;13.65;70.24
76137;BME280;68622;53.128;17.966;2023-04-24T02:54:19;100158.11;;;13.65;69.91
76137;BME280;68622;53.128;17.966;2023-04-24T02:56:45;100155.16;;;13.69;69.61
76137;BME280;68622;53.128;17.966;2023-04-24T02:59:11;100155.98;;;13.73;69.61
76137;BME280;68622;53.128;17.966;2023-04-24T03:01:37;100157.48;;;13.78;69.50
76137;BME280;68622;53.128;17.966;2023-04-24T03:04:03;100159.39;;;13.82;69.36
76137;BME280;68622;53.128;17.966;2023-04-24T03:06:29;100162.30;;;13.86;69.21
76137;BME280;68622;53.128;17.966;2023-04-24T03:08:57;100167.00;;;13.88;69.44
76137;BME280;68622;53.128;17.966;2023-04-24T03:11:23;100165.02;;;13.90;69.16
76137;BME280;68622;53.128;17.966;2023-04-24T03:13:48;100164.23;;;13.92;68.86
76137;BME280;68622;53.128;17.966;2023-04-24T03:16:14;100163.60;;;13.93;69.22
76137;BME280;68622;53.128;17.966;2023-04-24T03:18:40;100162.04;;;13.93;69.00
76137;BME280;68622;53.128;17.966;2023-04-24T03:21:07;100170.37;;;13.92;69.48
76137;BME280;68622;53.128;17.966;2023-04-24T03:23:33;100170.17;;;13.90;69.16
76137;BME280;68622;53.128;17.966;2023-04-24T03:25:59;100173.83;;;13.89;69.07
76137;BME280;68622;53.128;17.966;2023-04-24T03:28:25;100174.11;;;13.89;68.97
76137;BME280;68622;53.128;17.966;2023-04-24T03:30:56;100173.94;;;13.89;68.79
76137;BME280;68622;53.128;17.966;2023-04-24T03:33:23;100177.17;;;13.90;68.77
76137;BME280;68622;53.128;17.966;2023-04-24T03:36:00;100181.95;;;13.93;68.70
76137;BME280;68622;53.128;17.966;2023-04-24T03:38:26;100181.48;;;13.95;68.90
76137;BME280;68622;53.128;17.966;2023-04-24T03:41:01;100180.80;;;13.97;68.65
76137;BME280;68622;53.128;17.966;2023-04-24T03:43:37;100181.00;;;13.97;68.73
76137;BME280;68622;53.128;17.966;2023-04-24T03:46:05;100174.98;;;13.96;68.67
76137;BME280;68622;53.128;17.966;2023-04-24T03:48:32;100169.88;;;13.93;69.06
76137;BME280;68622;53.128;17.966;2023-04-24T03:50:59;100169.73;;;13.91;69.50
76137;BME280;68622;53.128;17.966;2023-04-24T03:53:25;100171.39;;;13.90;68.89
76137;BME280;68622;53.128;17.966;2023-04-24T03:55:53;100166.84;;;13.90;69.30
76137;BME280;68622;53.128;17.966;2023-04-24T03:58:19;100160.92;;;13.92;69.53
76137;BME280;68622;53.128;17.966;2023-04-24T04:00:45;100160.27;;;13.93;69.61
76137;BME280;68622;53.128;17.966;2023-04-24T04:03:32;100154.19;;;13.93;70.07
76137;BME280;68622;53.128;17.966;2023-04-24T04:05:58;100151.96;;;13.91;70.27
76137;BME280;68622;53.128;17.966;2023-04-24T04:08:24;100144.90;;;13.90;69.83
76137;BME280;68622;53.128;17.966;2023-04-24T04:10:49;100141.08;;;13.90;69.85
76137;BME280;68622;53.128;17.966;2023-04-24T04:13:15;100142.32;;;13.91;69.65
76137;BME280;68622;53.128;17.966;2023-04-24T04:15:41;100144.41;;;13.92;69.98
76137;BME280;68622;53.128;17.966;2023-04-24T04:18:07;100141.66;;;13.91;70.34
76137;BME280;68622;53.128;17.966;2023-04-24T04:20:34;100140.50;;;13.89;71.10
76137;BME280;68622;53.128;17.966;2023-04-24T04:23:00;100143.86;;;13.86;71.41
76137;BME280;68622;53.128;17.966;2023-04-24T04:25:35;100139.90;;;13.84;72.29
76137;BME280;68622;53.128;17.966;2023-04-24T04:28:01;100138.02;;;13.85;71.58
76137;BME280;68622;53.128;17.966;2023-04-24T04:30:28;100135.48;;;13.84;71.71
76137;BME280;68622;53.128;17.966;2023-04-24T04:32:59;100129.09;;;13.85;71.20
76137;BME280;68622;53.128;17.966;2023-04-24T04:35:25;100130.23;;;13.89;71.05
76137;BME280;68622;53.128;17.966;2023-04-24T04:37:51;100136.20;;;13.92;70.91
76137;BME280;68622;53.128;17.966;2023-04-24T04:40:34;100137.38;;;13.94;71.20
76137;BME280;68622;53.128;17.966;2023-04-24T04:43:02;100136.77;;;13.96;70.97
76137;BME280;68622;53.128;17.966;2023-04-24T04:45:32;100138.89;;;13.99;71.29
76137;BME280;68622;53.128;17.966;2023-04-24T04:48:19;100133.68;;;14.03;72.00
76137;BME280;68622;53.128;17.966;2023-04-24T04:50:45;100134.77;;;14.06;71.74
76137;BME280;68622;53.128;17.966;2023-04-24T04:53:11;100126.94;;;14.09;71.31
76137;BME280;68622;53.128;17.966;2023-04-24T04:55:38;100123.43;;;14.12;72.16
76137;BME280;68622;53.128;17.966;2023-04-24T04:58:13;100119.26;;;14.20;71.73
76137;BME280;68622;53.128;17.966;2023-04-24T05:00:39;100118.17;;;14.31;71.59
76137;BME280;68622;53.128;17.966;2023-04-24T05:03:15;100117.52;;;14.36;72.22
76137;BME280;68622;53.128;17.966;2023-04-24T05:05:41;100115.81;;;14.46;71.90
76137;BME280;68622;53.128;17.966;2023-04-24T05:08:09;100115.08;;;14.57;71.61
76137;BME280;68622;53.128;17.966;2023-04-24T05:10:35;100110.81;;;14.66;71.16
76137;BME280;68622;53.128;17.966;2023-04-24T05:13:03;100112.27;;;14.72;71.29
76137;BME280;68622;53.128;17.966;2023-04-24T05:15:30;100109.92;;;14.80;70.84
76137;BME280;68622;53.128;17.966;2023-04-24T05:17:57;100109.12;;;14.88;70.39
76137;BME280;68622;53.128;17.966;2023-04-24T05:20:23;100106.94;;;14.95;70.18
76137;BME280;68622;53.128;17.966;2023-04-24T05:22:49;100105.66;;;15.00;70.03
76137;BME280;68622;53.128;17.966;2023-04-24T05:25:17;100105.05;;;15.07;69.91
76137;BME280;68622;53.128;17.966;2023-04-24T05:27:49;100103.91;;;15.12;69.55
76137;BME280;68622;53.128;17.966;2023-04-24T05:30:16;100104.13;;;15.24;69.18
76137;BME280;68622;53.128;17.966;2023-04-24T05:32:42;100110.39;;;15.39;68.86
76137;BME280;68622;53.128;17.966;2023-04-24T05:35:08;100108.70;;;15.59;68.19
76137;BME280;68622;53.128;17.966;2023-04-24T05:37:35;100111.11;;;15.82;67.04
76137;BME280;68622;53.128;17.966;2023-04-24T05:40:01;100116.19;;;16.10;66.91
76137;BME280;68622;53.128;17.966;2023-04-24T05:42:27;100113.76;;;16.32;66.78
76137;BME280;68622;53.128;17.966;2023-04-24T05:44:53;100108.18;;;16.45;66.40
76137;BME280;68622;53.128;17.966;2023-04-24T05:47:20;100104.11;;;16.54;66.34
76137;BME280;68622;53.128;17.966;2023-04-24T05:49:48;100103.23;;;16.59;66.48
76137;BME280;68622;53.128;17.966;2023-04-24T05:52:14;100103.98;;;16.57;66.32
76137;BME280;68622;53.128;17.966;2023-04-24T05:54:43;100100.70;;;16.53;65.93
76137;BME280;68622;53.128;17.966;2023-04-24T05:57:10;100101.03;;;16.49;65.73
76137;BME280;68622;53.128;17.966;2023-04-24T06:00:09;100099.10;;;16.45;66.00
76137;BME280;68622;53.128;17.966;2023-04-24T06:02:43;100103.63;;;16.37;65.24
76137;BME280;68622;53.128;17.966;2023-04-24T06:05:10;100105.92;;;16.33;65.67
76137;BME280;68622;53.128;17.966;2023-04-24T06:07:36;100108.99;;;16.33;65.31
76137;BME280;68622;53.128;17.966;2023-04-24T06:10:03;100111.25;;;16.33;65.28
76137;BME280;68622;53.128;17.966;2023-04-24T06:12:35;100107.55;;;16.33;64.89
76137;BME280;68622;53.128;17.966;2023-04-24T06:15:06;100102.77;;;16.39;64.78
76137;BME280;68622;53.128;17.966;2023-04-24T06:17:51;100095.77;;;16.49;64.52
76137;BME280;68622;53.128;17.966;2023-04-24T06:20:17;100092.45;;;16.56;64.24
76137;BME280;68622;53.128;17.966;2023-04-24T06:22:43;100081.06;;;16.65;64.11
76137;BME280;68622;53.128;17.966;2023-04-24T06:25:09;100079.90;;;16.85;63.87
76137;BME280;68622;53.128;17.966;2023-04-24T06:27:36;100078.06;;;17.11;63.41
76137;BME280;68622;53.128;17.966;2023-04-24T06:30:02;100073.45;;;17.33;62.94
76137;BME280;68622;53.128;17.966;2023-04-24T06:32:28;100073.50;;;17.50;62.66
76137;BME280;68622;53.128;17.966;2023-04-24T06:34:56;100074.92;;;17.51;61.66
76137;BME280;68622;53.128;17.966;2023-04-24T06:37:22;100070.48;;;17.46;61.41
76137;BME280;68622;53.128;17.966;2023-04-24T06:39:48;100068.11;;;17.49;61.81
76137;BME280;68622;53.128;17.966;2023-04-24T06:42:14;100068.54;;;17.44;61.04
76137;BME280;68622;53.128;17.966;2023-04-24T06:44:43;100066.00;;;17.37;61.37
76137;BME280;68622;53.128;17.966;2023-04-24T06:47:11;100059.04;;;17.30;61.40
76137;BME280;68622;53.128;17.966;2023-04-24T06:49:39;100059.41;;;17.23;60.79
76137;BME280;68622;53.128;17.966;2023-04-24T06:52:05;100061.61;;;17.13;60.72
76137;BME280;68622;53.128;17.966;2023-04-24T06:54:32;100062.34;;;17.06;60.95
76137;BME280;68622;53.128;17.966;2023-04-24T06:56:59;100060.52;;;17.14;60.81
76137;BME280;68622;53.128;17.966;2023-04-24T06:59:26;100061.23;;;17.21;60.48
76137;BME280;68622;53.128;17.966;2023-04-24T07:01:54;100059.76;;;17.36;60.76
76137;BME280;68622;53.128;17.966;2023-04-24T07:04:20;100056.23;;;17.53;60.55
76137;BME280;68622;53.128;17.966;2023-04-24T07:06:47;100059.77;;;17.64;59.38
76137;BME280;68622;53.128;17.966;2023-04-24T07:09:15;100059.67;;;17.75;58.80
76137;BME280;68622;53.128;17.966;2023-04-24T07:11:45;100056.67;;;17.88;58.39
76137;BME280;68622;53.128;17.966;2023-04-24T07:14:11;100054.95;;;17.97;57.84
76137;BME280;68622;53.128;17.966;2023-04-24T07:16:37;100055.08;;;17.97;56.54
76137;BME280;68622;53.128;17.966;2023-04-24T07:19:03;100053.06;;;18.04;56.74
76137;BME280;68622;53.128;17.966;2023-04-24T07:21:29;100051.22;;;18.12;56.35
76137;BME280;68622;53.128;17.966;2023-04-24T07:23:58;100051.46;;;18.16;56.56
76137;BME280;68622;53.128;17.966;2023-04-24T07:26:25;100051.27;;;18.17;56.18
76137;BME280;68622;53.128;17.966;2023-04-24T07:28:51;100049.84;;;18.16;55.65
76137;BME280;68622;53.128;17.966;2023-04-24T07:31:17;100045.77;;;17.96;53.51
76137;BME280;68622;53.128;17.966;2023-04-24T07:33:43;100048.14;;;17.91;53.61
76137;BME280;68622;53.128;17.966;2023-04-24T07:36:09;100048.27;;;17.97;54.22
76137;BME280;68622;53.128;17.966;2023-04-24T07:38:42;100047.85;;;18.08;54.27
76137;BME280;68622;53.128;17.966;2023-04-24T07:41:08;100043.13;;;18.13;53.99
76137;BME280;68622;53.128;17.966;2023-04-24T07:43:34;100043.65;;;18.19;53.12
76137;BME280;68622;53.128;17.966;2023-04-24T07:46:01;100042.97;;;18.23;52.96
76137;BME280;68622;53.128;17.966;2023-04-24T07:48:27;100041.57;;;18.50;53.42
76137;BME280;68622;53.128;17.966;2023-04-24T07:50:53;100038.71;;;18.65;53.08
76137;BME280;68622;53.128;17.966;2023-04-24T07:53:19;100043.52;;;18.83;52.93
76137;BME280;68622;53.128;17.966;2023-04-24T07:55:45;100048.16;;;18.97;52.21
76137;BME280;68622;53.128;17.966;2023-04-24T07:58:11;100047.49;;;19.11;52.31
76137;BME280;68622;53.128;17.966;2023-04-24T08:00:37;100044.27;;;19.14;50.85
76137;BME280;68622;53.128;17.966;2023-04-24T08:03:03;100047.50;;;19.06;50.19
76137;BME280;68622;53.128;17.966;2023-04-24T08:05:29;100045.45;;;19.14;50.27
76137;BME280;68622;53.128;17.966;2023-04-24T08:07:55;100045.51;;;19.22;50.56
76137;BME280;68622;53.128;17.966;2023-04-24T08:10:22;100043.64;;;19.35;50.76
76137;BME280;68622;53.128;17.966;2023-04-24T08:12:48;100042.66;;;19.47;50.46
76137;BME280;68622;53.128;17.966;2023-04-24T08:15:14;100044.23;;;19.68;51.31
76137;BME280;68622;53.128;17.966;2023-04-24T08:17:40;100041.95;;;19.79;48.12
76137;BME280;68622;53.128;17.966;2023-04-24T08:20:10;100042.45;;;19.96;48.47
76137;BME280;68622;53.128;17.966;2023-04-24T08:22:40;100041.65;;;20.13;47.61
76137;BME280;68622;53.128;17.966;2023-04-24T08:25:07;100037.52;;;20.31;46.35
76137;BME280;68622;53.128;17.966;2023-04-24T08:27:33;100034.52;;;20.42;46.64
76137;BME280;68622;53.128;17.966;2023-04-24T08:30:00;100034.67;;;20.37;46.04
76137;BME280;68622;53.128;17.966;2023-04-24T08:32:26;100031.02;;;20.48;45.57
76137;BME280;68622;53.128;17.966;2023-04-24T08:34:56;100025.17;;;20.52;46.05
76137;BME280;68622;53.128;17.966;2023-04-24T08:37:23;100024.65;;;20.47;46.24
76137;BME280;68622;53.128;17.966;2023-04-24T08:39:49;100023.54;;;20.30;45.66
76137;BME280;68622;53.128;17.966;2023-04-24T08:42:17;100022.15;;;20.19;45.72
76137;BME280;68622;53.128;17.966;2023-04-24T08:44:44;100021.79;;;20.18;45.68
76137;BME280;68622;53.128;17.966;2023-04-24T08:47:11;100020.06;;;20.14;45.69
76137;BME280;68622;53.128;17.966;2023-04-24T08:49:38;100021.77;;;20.23;46.08
76137;BME280;68622;53.128;17.966;2023-04-24T08:52:05;100023.81;;;20.19;45.59
76137;BME280;68622;53.128;17.966;2023-04-24T08:54:34;100021.59;;;20.18;45.50
76137;BME280;68622;53.128;17.966;2023-04-24T08:57:01;100020.45;;;20.27;45.72
76137;BME280;68622;53.128;17.966;2023-04-24T08:59:30;100019.77;;;20.29;45.42
76137;BME280;68622;53.128;17.966;2023-04-24T09:01:57;100020.54;;;20.29;45.44
76137;BME280;68622;53.128;17.966;2023-04-24T09:04:24;100022.90;;;20.41;45.73
76137;BME280;68622;53.128;17.966;2023-04-24T09:06:56;100021.04;;;20.38;44.93
76137;BME280;68622;53.128;17.966;2023-04-24T09:09:23;100025.10;;;20.15;44.45
76137;BME280;68622;53.128;17.966;2023-04-24T09:11:50;100028.98;;;20.11;45.16
76137;BME280;68622;53.128;17.966;2023-04-24T09:14:17;100035.08;;;20.11;45.58
76137;BME280;68622;53.128;17.966;2023-04-24T09:16:43;100031.28;;;20.16;45.83
76137;BME280;68622;53.128;17.966;2023-04-24T09:19:09;100038.05;;;20.12;45.40
76137;BME280;68622;53.128;17.966;2023-04-24T09:21:35;100035.85;;;20.06;45.36
76137;BME280;68622;53.128;17.966;2023-04-24T09:24:06;100034.43;;;20.06;45.52
76137;BME280;68622;53.128;17.966;2023-04-24T09:26:36;100034.69;;;20.09;45.89
76137;BME280;68622;53.128;17.966;2023-04-24T09:29:03;100028.73;;;20.24;46.54
76137;BME280;68622;53.128;17.966;2023-04-24T09:31:29;100029.20;;;20.22;46.52
76137;BME280;68622;53.128;17.966;2023-04-24T09:36:30;100027.16;;;20.30;46.50
76137;BME280;68622;53.128;17.966;2023-04-24T09:39:04;100027.11;;;20.30;46.17
76137;BME280;68622;53.128;17.966;2023-04-24T09:41:32;100018.95;;;20.41;45.90
76137;BME280;68622;53.128;17.966;2023-04-24T09:44:12;100016.52;;;20.47;45.69
76137;BME280;68622;53.128;17.966;2023-04-24T09:46:38;100015.39;;;20.46;45.13
76137;BME280;68622;53.128;17.966;2023-04-24T09:49:08;100012.64;;;20.42;44.97
76137;BME280;68622;53.128;17.966;2023-04-24T09:51:36;100010.98;;;20.70;45.57
76137;BME280;68622;53.128;17.966;2023-04-24T09:54:04;100004.80;;;20.86;45.64
76137;BME280;68622;53.128;17.966;2023-04-24T09:56:33;100004.67;;;21.05;45.02
76137;BME280;68622;53.128;17.966;2023-04-24T09:59:06;100006.66;;;21.09;43.78
76137;BME280;68622;53.128;17.966;2023-04-24T10:01:34;100005.74;;;21.21;43.82
76137;BME280;68622;53.128;17.966;2023-04-24T10:04:00;100000.95;;;21.33;44.26
76137;BME280;68622;53.128;17.966;2023-04-24T10:06:34;99995.11;;;21.42;44.07
76137;BME280;68622;53.128;17.966;2023-04-24T10:09:00;99988.50;;;21.51;43.61
76137;BME280;68622;53.128;17.966;2023-04-24T10:11:26;99985.05;;;21.39;42.49
76137;BME280;68622;53.128;17.966;2023-04-24T10:13:53;99984.46;;;21.43;43.12
76137;BME280;68622;53.128;17.966;2023-04-24T10:16:21;99982.52;;;21.49;43.30
76137;BME280;68622;53.128;17.966;2023-04-24T10:18:48;99973.97;;;21.54;42.79
76137;BME280;68622;53.128;17.966;2023-04-24T10:21:15;99969.15;;;21.65;43.15
76137;BME280;68622;53.128;17.966;2023-04-24T10:23:42;99975.00;;;21.66;42.98
76137;BME280;68622;53.128;17.966;2023-04-24T10:26:09;99985.79;;;21.77;43.49
76137;BME280;68622;53.128;17.966;2023-04-24T10:28:39;99981.06;;;21.75;42.82
76137;BME280;68622;53.128;17.966;2023-04-24T10:31:05;99979.04;;;21.79;43.00
76137;BME280;68622;53.128;17.966;2023-04-24T10:33:32;99978.56;;;21.74;42.69
76137;BME280;68622;53.128;17.966;2023-04-24T10:35:58;99981.60;;;21.83;43.15
76137;BME280;68622;53.128;17.966;2023-04-24T10:38:25;99976.41;;;22.22;42.77
76137;BME280;68622;53.128;17.966;2023-04-24T10:41:09;99974.02;;;22.49;42.17
76137;BME280;68622;53.128;17.966;2023-04-24T10:43:40;99973.26;;;22.56;41.37
76137;BME280;68622;53.128;17.966;2023-04-24T10:46:06;99975.84;;;22.65;41.70
76137;BME280;68622;53.128;17.966;2023-04-24T10:48:33;99972.09;;;22.63;41.48
76137;BME280;68622;53.128;17.966;2023-04-24T10:50:59;99978.77;;;22.44;41.89
76137;BME280;68622;53.128;17.966;2023-04-24T10:53:29;99978.45;;;22.39;41.51
76137;BME280;68622;53.128;17.966;2023-04-24T10:56:02;99975.54;;;22.45;42.20
76137;BME280;68622;53.128;17.966;2023-04-24T10:58:55;99978.71;;;22.31;42.06
76137;BME280;68622;53.128;17.966;2023-04-24T11:01:34;99979.88;;;22.24;42.25
76137;BME280;68622;53.128;17.966;2023-04-24T11:04:04;99980.58;;;22.19;42.14
76137;BME280;68622;53.128;17.966;2023-04-24T11:06:34;99978.41;;;22.50;42.48
76137;BME280;68622;53.128;17.966;2023-04-24T11:11:30;99970.45;;;22.64;41.35
76137;BME280;68622;53.128;17.966;2023-04-24T11:16:35;99973.05;;;22.45;41.84
76137;BME280;68622;53.128;17.966;2023-04-24T11:19:09;99973.79;;;22.63;41.72
76137;BME280;68622;53.128;17.966;2023-04-24T11:21:41;99973.85;;;22.55;41.78
76137;BME280;68622;53.128;17.966;2023-04-24T11:24:27;99977.99;;;22.78;42.15
76137;BME280;68622;53.128;17.966;2023-04-24T11:30:01;99977.04;;;22.73;42.53
76137;BME280;68622;53.128;17.966;2023-04-24T11:32:40;99984.40;;;22.54;43.04
76137;BME280;68622;53.128;17.966;2023-04-24T11:35:22;99983.72;;;22.45;43.58
76137;BME280;68622;53.128;17.966;2023-04-24T11:37:52;99991.55;;;22.56;42.46
76137;BME280;68622;53.128;17.966;2023-04-24T11:40:20;99990.66;;;22.52;40.50
76137;BME280;68622;53.128;17.966;2023-04-24T11:42:50;99994.27;;;22.61;40.97
76137;BME280;68622;53.128;17.966;2023-04-24T11:45:25;99987.70;;;22.73;40.93
76137;BME280;68622;53.128;17.966;2023-04-24T11:47:51;99990.33;;;22.84;40.49
76137;BME280;68622;53.128;17.966;2023-04-24T11:50:19;99986.82;;;22.74;40.29
76137;BME280;68622;53.128;17.966;2023-04-24T11:52:47;99985.15;;;22.75;40.02
76137;BME280;68622;53.128;17.966;2023-04-24T11:57:41;99984.70;;;22.76;40.45
76137;BME280;68622;53.128;17.966;2023-04-24T12:00:16;99979.20;;;22.72;40.03
76137;BME280;68622;53.128;17.966;2023-04-24T12:02:42;99980.65;;;22.46;40.06
76137;BME280;68622;53.128;17.966;2023-04-24T12:05:19;99977.08;;;22.31;40.56
76137;BME280;68622;53.128;17.966;2023-04-24T12:07:45;99975.48;;;22.32;41.05
76137;BME280;68622;53.128;17.966;2023-04-24T12:10:11;99974.51;;;22.30;41.21
76137;BME280;68622;53.128;17.966;2023-04-24T12:12:37;99971.25;;;22.24;41.32
76137;BME280;68622;53.128;17.966;2023-04-24T12:15:07;99973.31;;;22.22;41.24
76137;BME280;68622;53.128;17.966;2023-04-24T12:17:35;99972.53;;;22.29;41.24
76137;BME280;68622;53.128;17.966;2023-04-24T12:20:05;99978.52;;;22.32;41.17
76137;BME280;68622;53.128;17.966;2023-04-24T12:22:52;99981.19;;;22.19;41.56
76137;BME280;68622;53.128;17.966;2023-04-24T12:25:23;99976.48;;;22.17;42.01
76137;BME280;68622;53.128;17.966;2023-04-24T12:27:55;99976.80;;;22.28;43.43
76137;BME280;68622;53.128;17.966;2023-04-24T12:30:25;99974.85;;;22.09;43.30
76137;BME280;68622;53.128;17.966;2023-04-24T12:32:52;99969.21;;;22.19;43.13
76137;BME280;68622;53.128;17.966;2023-04-24T12:35:22;99962.13;;;22.18;43.28
76137;BME280;68622;53.128;17.966;2023-04-24T12:37:49;99959.15;;;22.23;42.88
76137;BME280;68622;53.128;17.966;2023-04-24T12:40:17;99957.60;;;22.46;42.90
76137;BME280;68622;53.128;17.966;2023-04-24T12:42:46;99957.73;;;22.43;42.79
76137;BME280;68622;53.128;17.966;2023-04-24T12:45:13;99958.48;;;22.55;42.68
76137;BME280;68622;53.128;17.966;2023-04-24T12:47:41;99957.91;;;22.63;42.88
76137;BME280;68622;53.128;17.966;2023-04-24T12:50:09;99957.67;;;22.68;42.97
76137;BME280;68622;53.128;17.966;2023-04-24T12:52:35;99955.66;;;22.76;43.15
76137;BME280;68622;53.128;17.966;2023-04-24T12:55:02;99953.52;;;22.67;43.14
76137;BME280;68622;53.128;17.966;2023-04-24T12:57:30;99950.09;;;22.75;43.42
76137;BME280;68622;53.128;17.966;2023-04-24T12:59:58;99948.73;;;22.52;43.73